Terminal Aerodrome Forecast
Issued by NWS

Home | Current Version | Previous Version | Text Only | Print | Product List | Glossary On
Versions: 1 2 3 4 5 6 7 8 9 10 11 12 13 14 15 16 17 18 19 20 21
000
FTAK31 PAJN 251735
TAFASI
TAF
PASI 251735Z 2518/2618 VRB05KT P6SM VCSH SCT009 OVC020
      TEMPO 2518/2521 31006KT BKN009
     FM252100 28008KT P6SM VCSH BKN010 OVC025
     FM260300 25007KT 6SM -RA BR BKN008 OVC015
     FM260900 21008KT 5SM -RA BR OVC006=

USA.gov is the U.S. government's official web portal to all federal, state and local government web resources and services.